Time;durP1;ratioP1;P1;durP2;ratioP2;P2;SDS_P1;SDS_P2;PMS_P1;PMS_P2;Temp;Humidity;BMP_temperature;BMP_pressure;BME280_temperature;BME280_humidity;BME280_pressure;Samples;Min_cycle;Max_cycle;Signal;HPM_P1;HPM_P2
2022/09/15 00:01:06;;;;;;;5.10;2.40;;;;;;;;;;4923876;29;20063;-88
2022/09/15 00:03:33;;;;;;;9.55;2.42;;;;;;;;;;4926323;29;20471;-88
2022/09/15 00:05:59;;;;;;;4.90;2.28;;;;;;;;;;4939626;28;20043;-88
2022/09/15 00:08:25;;;;;;;7.70;2.42;;;;;;;;;;4927339;29;20250;-88
2022/09/15 00:10:52;;;;;;;7.30;2.53;;;;;;;;;;4924846;29;20032;-88
2022/09/15 00:13:18;;;;;;;9.85;2.55;;;;;;;;;;4926215;29;20547;-89
2022/09/15 00:15:45;;;;;;;8.00;2.17;;;;;;;;;;4922056;29;20052;-88
2022/09/15 00:18:11;;;;;;;4.43;2.67;;;;;;;;;;4932361;29;20482;-88
2022/09/15 00:20:44;;;;;;;7.07;2.00;;;;;;;;;;4910163;29;20039;-88
2022/09/15 00:23:11;;;;;;;14.00;2.50;;;;;;;;;;4925200;29;20032;-88
2022/09/15 00:25:42;;;;;;;10.35;3.05;;;;;;;;;;4925426;29;20076;-89
2022/09/15 00:28:08;;;;;;;6.88;2.38;;;;;;;;;;4923151;29;20020;-88
2022/09/15 00:30:34;;;;;;;7.50;2.60;;;;;;;;;;4911539;29;20563;-88
2022/09/15 00:33:00;;;;;;;6.20;2.30;;;;;;;;;;4941399;28;20032;-89
2022/09/15 00:35:26;;;;;;;9.38;2.58;;;;;;;;;;4913481;29;20044;-89
2022/09/15 00:37:52;;;;;;;11.20;2.50;;;;;;;;;;4909521;29;20497;-89
2022/09/15 00:40:18;;;;;;;11.35;2.47;;;;;;;;;;4914814;29;20126;-89
2022/09/15 00:42:44;;;;;;;12.23;2.55;;;;;;;;;;4922531;29;20027;-89
2022/09/15 00:45:13;;;;;;;8.38;2.40;;;;;;;;;;4914153;29;20040;-88
2022/09/15 00:47:40;;;;;;;16.20;2.53;;;;;;;;;;4929076;29;20983;-88
2022/09/15 00:50:12;;;;;;;7.28;2.30;;;;;;;;;;4909157;29;20046;-88
2022/09/15 00:52:42;;;;;;;6.32;2.33;;;;;;;;;;4928330;29;20384;-88
2022/09/15 00:55:10;;;;;;;11.35;3.03;;;;;;;;;;4926351;28;20038;-88
2022/09/15 00:58:03;;;;;;;8.43;2.03;;;;;;;;;;4927001;28;20460;-89
2022/09/15 01:00:29;;;;;;;9.45;1.65;;;;;;;;;;4943278;28;20393;-88
2022/09/15 01:02:56;;;;;;;4.22;1.60;;;;;;;;;;4929023;29;20024;-88
2022/09/15 01:05:27;;;;;;;3.92;1.30;;;;;;;;;;4940716;28;20039;-88
2022/09/15 01:07:59;;;;;;;9.65;1.70;;;;;;;;;;4939008;28;20642;-87
2022/09/15 01:10:29;;;;;;;7.22;1.42;;;;;;;;;;4929835;29;20031;-88
2022/09/15 01:12:58;;;;;;;3.72;1.77;;;;;;;;;;4929107;28;20041;-88
2022/09/15 01:15:47;;;;;;;4.38;1.20;;;;;;;;;;4944213;28;20035;-88
2022/09/15 01:18:31;;;;;;;6.57;1.20;;;;;;;;;;4924164;29;20031;-88
2022/09/15 01:21:20;;;;;;;2.38;1.15;;;;;;;;;;4924339;28;20035;-88
2022/09/15 01:23:49;;;;;;;4.85;1.85;;;;;;;;;;4924692;29;20027;-88
2022/09/15 01:26:34;;;;;;;7.75;1.30;;;;;;;;;;4930095;29;20598;-88
2022/09/15 01:29:05;;;;;;;8.45;1.10;;;;;;;;;;4943535;28;20375;-88
2022/09/15 01:33:02;;;;;;;5.72;1.20;;;;;;;;;;4944321;28;20054;-89
2022/09/15 01:34:29;;;;;;;6.35;1.30;;;;;;;;;;4946032;28;20298;-88
2022/09/15 01:37:01;;;;;;;3.58;1.20;;;;;;;;;;4926859;28;20155;-88
2022/09/15 01:39:38;;;;;;;20.08;3.00;;;;;;;;;;4945534;28;20558;-89
2022/09/15 01:42:06;;;;;;;10.30;2.58;;;;;;;;;;4926058;29;20039;-89
2022/09/15 01:44:44;;;;;;;2.50;1.00;;;;;;;;;;4931554;28;20498;-89
2022/09/15 01:47:12;;;;;;;7.28;2.88;;;;;;;;;;4930745;29;20604;-88
2022/09/15 01:49:44;;;;;;;9.73;1.42;;;;;;;;;;4931465;29;20485;-89
2022/09/15 01:52:11;;;;;;;10.32;1.70;;;;;;;;;;4925564;28;20027;-88
2022/09/15 01:54:39;;;;;;;8.23;1.40;;;;;;;;;;4915366;29;20038;-88
2022/09/15 01:57:06;;;;;;;4.35;1.23;;;;;;;;;;4923947;28;20079;-88
2022/09/15 01:59:33;;;;;;;8.80;1.25;;;;;;;;;;4909953;29;20522;-89
2022/09/15 02:02:02;;;;;;;4.88;1.30;;;;;;;;;;4930334;29;20095;-89
2022/09/15 02:04:31;;;;;;;18.50;1.70;;;;;;;;;;4925952;29;20091;-89
2022/09/15 02:06:57;;;;;;;8.38;1.52;;;;;;;;;;4926056;29;20243;-90
2022/09/15 02:09:29;;;;;;;11.80;1.58;;;;;;;;;;4929897;29;20027;-90
2022/09/15 02:11:58;;;;;;;14.52;1.83;;;;;;;;;;4927414;29;20035;-89
2022/09/15 02:14:46;;;;;;;12.73;1.55;;;;;;;;;;4925504;29;20023;-89
2022/09/15 02:17:15;;;;;;;12.52;1.50;;;;;;;;;;4924600;29;20024;-89
2022/09/15 02:19:43;;;;;;;8.85;1.48;;;;;;;;;;4930395;29;20035;-89
2022/09/15 02:22:16;;;;;;;10.27;1.67;;;;;;;;;;4933478;29;20123;-89
2022/09/15 02:24:48;;;;;;;10.57;1.20;;;;;;;;;;4938995;29;20099;-87
2022/09/15 02:27:21;;;;;;;16.23;1.58;;;;;;;;;;4942487;29;20061;-87
2022/09/15 02:29:48;;;;;;;11.55;1.70;;;;;;;;;;4956179;28;20144;-87
2022/09/15 02:32:16;;;;;;;6.32;1.08;;;;;;;;;;4958102;28;20035;-88
2022/09/15 02:34:45;;;;;;;5.57;1.08;;;;;;;;;;4942319;29;20284;-87
2022/09/15 02:37:12;;;;;;;12.88;1.33;;;;;;;;;;4946609;29;20038;-88
2022/09/15 02:39:41;;;;;;;11.60;1.55;;;;;;;;;;4945904;29;20039;-89
2022/09/15 02:42:09;;;;;;;7.65;2.10;;;;;;;;;;4954519;28;20040;-89
2022/09/15 02:44:35;;;;;;;10.38;1.27;;;;;;;;;;4952593;28;20039;-87
2022/09/15 02:47:08;;;;;;;6.55;1.60;;;;;;;;;;4919852;29;20031;-89
2022/09/15 02:49:34;;;;;;;13.02;1.58;;;;;;;;;;4945543;29;20028;-89
2022/09/15 02:52:00;;;;;;;11.63;1.38;;;;;;;;;;4940631;29;20035;-89
2022/09/15 02:54:26;;;;;;;9.77;1.83;;;;;;;;;;4944468;29;20050;-88
2022/09/15 02:56:52;;;;;;;9.25;1.45;;;;;;;;;;4934607;28;20063;-88
2022/09/15 02:59:18;;;;;;;6.22;1.23;;;;;;;;;;4918678;29;20068;-89
2022/09/15 03:01:44;;;;;;;17.05;1.58;;;;;;;;;;4917899;29;20052;-90
2022/09/15 03:04:10;;;;;;;9.45;1.42;;;;;;;;;;4916880;29;20035;-90
2022/09/15 03:06:36;;;;;;;8.30;1.15;;;;;;;;;;4915233;29;20040;-88
2022/09/15 03:09:04;;;;;;;8.02;1.58;;;;;;;;;;4916025;29;20031;-89
2022/09/15 03:11:31;;;;;;;4.68;1.30;;;;;;;;;;4949605;29;20028;-89
2022/09/15 03:13:58;;;;;;;9.35;1.60;;;;;;;;;;4932761;29;20028;-90
2022/09/15 03:16:25;;;;;;;8.45;1.55;;;;;;;;;;4915573;29;20032;-90
2022/09/15 03:18:51;;;;;;;7.35;1.83;;;;;;;;;;4931945;29;20035;-89
2022/09/15 03:21:17;;;;;;;9.95;2.08;;;;;;;;;;4913828;29;20151;-89
2022/09/15 03:23:44;;;;;;;11.45;1.60;;;;;;;;;;4929653;29;20267;-89
2022/09/15 03:26:17;;;;;;;10.93;1.67;;;;;;;;;;4930529;29;20036;-89
2022/09/15 03:28:43;;;;;;;4.68;1.30;;;;;;;;;;4929058;29;20418;-89
2022/09/15 03:31:09;;;;;;;10.23;1.50;;;;;;;;;;4920956;29;20027;-88
2022/09/15 03:33:36;;;;;;;12.27;1.70;;;;;;;;;;4929129;29;20032;-89
2022/09/15 03:36:02;;;;;;;4.40;1.00;;;;;;;;;;4940565;29;20045;-89
2022/09/15 03:38:28;;;;;;;10.43;1.50;;;;;;;;;;4920365;29;20559;-88
2022/09/15 03:40:57;;;;;;;11.88;1.73;;;;;;;;;;4945819;29;20043;-90
2022/09/15 03:43:23;;;;;;;7.45;1.58;;;;;;;;;;4930024;29;20282;-88
2022/09/15 03:45:49;;;;;;;22.30;4.65;;;;;;;;;;4915783;29;20079;-85
2022/09/15 03:48:16;;;;;;;6.22;1.42;;;;;;;;;;4881669;29;20040;-85
2022/09/15 03:50:42;;;;;;;10.45;1.83;;;;;;;;;;4918363;29;20106;-85
2022/09/15 03:53:08;;;;;;;5.40;1.80;;;;;;;;;;4927795;29;20032;-86
2022/09/15 03:55:34;;;;;;;7.45;1.42;;;;;;;;;;4905795;28;20057;-86
2022/09/15 03:58:00;;;;;;;6.65;1.13;;;;;;;;;;4934852;28;20063;-87
2022/09/15 04:00:26;;;;;;;7.30;1.58;;;;;;;;;;4937600;28;20035;-86
2022/09/15 04:02:52;;;;;;;9.35;1.90;;;;;;;;;;4921922;28;20245;-86
2022/09/15 04:05:19;;;;;;;16.88;1.83;;;;;;;;;;4922750;28;20629;-85
2022/09/15 04:07:45;;;;;;;11.88;1.50;;;;;;;;;;4919253;29;20269;-86
2022/09/15 04:10:11;;;;;;;8.00;2.15;;;;;;;;;;4936272;28;20506;-86
2022/09/15 04:12:37;;;;;;;9.30;1.83;;;;;;;;;;4933552;29;20031;-86
2022/09/15 04:15:03;;;;;;;15.13;3.03;;;;;;;;;;4936192;28;20059;-86
2022/09/15 04:17:29;;;;;;;10.85;3.03;;;;;;;;;;4920390;29;20039;-86
2022/09/15 04:19:56;;;;;;;14.45;1.90;;;;;;;;;;4953544;28;20538;-86
2022/09/15 04:22:22;;;;;;;10.25;1.75;;;;;;;;;;4934908;29;20121;-88
2022/09/15 04:24:49;;;;;;;7.28;2.03;;;;;;;;;;4940377;29;20035;-89
2022/09/15 04:27:15;;;;;;;12.23;2.72;;;;;;;;;;4935273;28;20049;-89
2022/09/15 04:29:42;;;;;;;8.27;1.27;;;;;;;;;;4935473;29;20039;-88
2022/09/15 04:32:08;;;;;;;11.93;1.80;;;;;;;;;;4933178;28;20024;-89
2022/09/15 04:34:35;;;;;;;17.63;4.90;;;;;;;;;;4956429;28;20900;-88
2022/09/15 04:37:01;;;;;;;25.33;9.52;;;;;;;;;;4936097;29;20042;-87
2022/09/15 04:39:27;;;;;;;17.60;3.38;;;;;;;;;;4919152;28;20043;-88
2022/09/15 04:41:53;;;;;;;18.30;3.78;;;;;;;;;;4922561;29;20044;-87
2022/09/15 04:44:19;;;;;;;10.43;1.77;;;;;;;;;;4934555;29;20039;-88
2022/09/15 04:46:46;;;;;;;13.05;1.55;;;;;;;;;;4918181;28;20067;-87
2022/09/15 04:49:12;;;;;;;12.15;1.95;;;;;;;;;;4934048;28;20062;-88
2022/09/15 04:51:38;;;;;;;12.90;1.90;;;;;;;;;;4919157;28;20051;-88
2022/09/15 04:54:04;;;;;;;10.55;1.83;;;;;;;;;;4920293;28;20062;-88
2022/09/15 04:56:30;;;;;;;13.82;1.80;;;;;;;;;;4914698;28;20062;-88
2022/09/15 04:58:57;;;;;;;10.65;1.85;;;;;;;;;;4947508;28;20038;-88
2022/09/15 05:01:25;;;;;;;13.63;2.17;;;;;;;;;;4932063;28;20066;-88
2022/09/15 05:03:51;;;;;;;11.13;1.80;;;;;;;;;;4951089;28;20043;-88
2022/09/15 05:06:19;;;;;;;8.50;2.10;;;;;;;;;;4934938;28;20035;-88
2022/09/15 05:08:48;;;;;;;15.02;2.22;;;;;;;;;;4952390;29;20415;-88
2022/09/15 05:11:14;;;;;;;8.70;1.60;;;;;;;;;;4934175;29;20143;-88
2022/09/15 05:13:40;;;;;;;12.02;2.00;;;;;;;;;;4914334;29;20043;-88
2022/09/15 05:16:09;;;;;;;9.20;1.63;;;;;;;;;;4934478;29;20047;-88
2022/09/15 05:18:35;;;;;;;15.23;1.95;;;;;;;;;;4927070;29;20075;-87
2022/09/15 05:21:02;;;;;;;9.23;2.05;;;;;;;;;;4917211;29;20038;-87
2022/09/15 05:23:28;;;;;;;12.45;2.28;;;;;;;;;;4935225;28;20039;-88
2022/09/15 05:25:58;;;;;;;8.70;1.80;;;;;;;;;;4934765;29;20046;-88
2022/09/15 05:28:24;;;;;;;9.77;2.33;;;;;;;;;;4928951;29;20495;-88
2022/09/15 05:30:51;;;;;;;10.75;1.60;;;;;;;;;;4915391;29;20046;-88
2022/09/15 05:33:18;;;;;;;8.93;2.45;;;;;;;;;;4929947;29;20034;-88
2022/09/15 05:35:54;;;;;;;16.23;1.80;;;;;;;;;;4949002;28;20436;-88
2022/09/15 05:38:21;;;;;;;8.02;1.45;;;;;;;;;;4949047;28;20031;-88
2022/09/15 05:40:47;;;;;;;10.65;1.50;;;;;;;;;;4920532;28;20086;-88
2022/09/15 05:43:16;;;;;;;12.00;1.52;;;;;;;;;;4935674;29;20031;-87
2022/09/15 05:45:42;;;;;;;7.57;1.70;;;;;;;;;;4931464;29;20050;-88
2022/09/15 05:48:11;;;;;;;14.05;2.22;;;;;;;;;;4931756;29;20071;-88
2022/09/15 05:50:38;;;;;;;5.72;1.98;;;;;;;;;;4914991;29;20491;-88
2022/09/15 05:53:06;;;;;;;13.15;2.97;;;;;;;;;;4932977;29;20442;-88
2022/09/15 05:55:36;;;;;;;5.70;1.50;;;;;;;;;;4932722;28;20098;-88
2022/09/15 05:58:02;;;;;;;9.07;1.50;;;;;;;;;;4909692;29;20039;-87
2022/09/15 06:00:28;;;;;;;9.45;1.58;;;;;;;;;;4908934;29;20038;-88
2022/09/15 06:02:54;;;;;;;11.10;2.10;;;;;;;;;;4909118;29;20600;-87
2022/09/15 06:05:20;;;;;;;5.72;1.40;;;;;;;;;;4906260;29;20040;-87
2022/09/15 06:07:46;;;;;;;7.28;1.45;;;;;;;;;;4893110;29;20032;-87
2022/09/15 06:10:12;;;;;;;10.95;1.83;;;;;;;;;;4894519;29;20029;-88
2022/09/15 06:12:39;;;;;;;6.85;1.45;;;;;;;;;;4872847;29;20104;-87
2022/09/15 06:15:05;;;;;;;13.90;1.85;;;;;;;;;;4896648;29;20112;-88
2022/09/15 06:17:31;;;;;;;5.20;1.40;;;;;;;;;;4869469;29;20426;-87
2022/09/15 06:19:57;;;;;;;11.05;2.55;;;;;;;;;;4889696;29;20035;-88
2022/09/15 06:22:23;;;;;;;11.73;2.03;;;;;;;;;;4905540;29;20040;-87
2022/09/15 06:24:51;;;;;;;7.00;1.30;;;;;;;;;;4893573;29;20046;-87
2022/09/15 06:27:17;;;;;;;6.93;2.00;;;;;;;;;;4894966;29;20051;-87
2022/09/15 06:29:43;;;;;;;7.43;1.70;;;;;;;;;;4894523;29;20461;-88
2022/09/15 06:32:09;;;;;;;10.82;1.48;;;;;;;;;;4890691;29;20051;-88
2022/09/15 06:34:35;;;;;;;12.05;2.13;;;;;;;;;;4892875;29;20048;-88
2022/09/15 06:37:22;;;;;;;4.93;1.00;;;;;;;;;;4910209;29;20096;-87
2022/09/15 06:39:48;;;;;;;6.25;1.27;;;;;;;;;;4905074;29;20032;-88
2022/09/15 06:42:14;;;;;;;6.35;1.40;;;;;;;;;;4892178;29;20032;-88
2022/09/15 06:44:40;;;;;;;9.57;1.15;;;;;;;;;;4907472;29;20051;-88
2022/09/15 06:47:06;;;;;;;7.07;1.17;;;;;;;;;;4890425;29;20044;-88
2022/09/15 06:49:32;;;;;;;12.70;1.52;;;;;;;;;;4888871;29;20032;-87
2022/09/15 06:52:01;;;;;;;5.80;1.20;;;;;;;;;;4900275;29;20155;-87
2022/09/15 06:54:27;;;;;;;8.40;1.65;;;;;;;;;;4892207;29;20062;-87
2022/09/15 06:56:53;;;;;;;6.82;1.23;;;;;;;;;;4909035;28;20047;-87
2022/09/15 06:59:19;;;;;;;10.90;1.65;;;;;;;;;;4910482;29;20115;-87
2022/09/15 07:01:45;;;;;;;7.70;2.67;;;;;;;;;;4925002;29;20044;-88
2022/09/15 07:04:11;;;;;;;7.88;1.42;;;;;;;;;;4911794;29;20086;-88
2022/09/15 07:06:38;;;;;;;4.53;0.98;;;;;;;;;;4911282;29;20571;-87
2022/09/15 07:09:04;;;;;;;10.05;2.20;;;;;;;;;;4918004;29;20028;-88
2022/09/15 07:11:31;;;;;;;3.70;1.17;;;;;;;;;;4910339;29;20036;-88
2022/09/15 07:13:57;;;;;;;7.50;1.98;;;;;;;;;;4910007;29;20056;-88
2022/09/15 07:16:24;;;;;;;6.85;0.85;;;;;;;;;;4923579;29;20543;-88
2022/09/15 07:18:50;;;;;;;5.38;1.23;;;;;;;;;;4927383;29;20031;-89
2022/09/15 07:21:18;;;;;;;4.30;1.20;;;;;;;;;;4926162;29;20051;-88
2022/09/15 07:23:45;;;;;;;9.27;1.67;;;;;;;;;;4927401;29;21337;-90
2022/09/15 07:26:22;;;;;;;4.05;1.50;;;;;;;;;;4933240;29;20055;-89
2022/09/15 07:28:49;;;;;;;5.03;1.05;;;;;;;;;;4925743;29;20594;-88
2022/09/15 07:31:18;;;;;;;10.85;1.42;;;;;;;;;;4928697;29;20030;-89
2022/09/15 07:33:44;;;;;;;8.45;1.65;;;;;;;;;;4926052;29;20602;-89
2022/09/15 07:36:10;;;;;;;7.30;1.63;;;;;;;;;;4928439;29;20040;-89
2022/09/15 07:38:42;;;;;;;5.85;1.20;;;;;;;;;;4925385;29;20114;-89
2022/09/15 07:41:09;;;;;;;7.47;1.27;;;;;;;;;;4942519;28;20099;-89
2022/09/15 07:43:35;;;;;;;7.95;1.50;;;;;;;;;;4928496;29;20060;-89
2022/09/15 07:46:02;;;;;;;9.38;1.45;;;;;;;;;;4910181;29;20403;-89
2022/09/15 07:48:28;;;;;;;3.85;0.93;;;;;;;;;;4935720;29;20387;-89
2022/09/15 07:50:55;;;;;;;5.22;1.13;;;;;;;;;;4929992;29;20091;-89
2022/09/15 07:53:21;;;;;;;15.63;1.27;;;;;;;;;;4933208;29;20071;-89
2022/09/15 07:55:54;;;;;;;5.97;1.20;;;;;;;;;;4931985;28;20047;-89
2022/09/15 07:58:20;;;;;;;7.68;1.67;;;;;;;;;;4909344;29;20032;-89
2022/09/15 08:00:46;;;;;;;6.70;1.60;;;;;;;;;;4913851;29;20028;-89
2022/09/15 08:03:13;;;;;;;11.50;1.90;;;;;;;;;;4906497;29;20033;-89
2022/09/15 08:05:46;;;;;;;8.27;1.08;;;;;;;;;;4903377;29;20121;-89
2022/09/15 08:08:12;;;;;;;12.38;2.38;;;;;;;;;;4892436;29;20602;-89
2022/09/15 08:10:39;;;;;;;5.07;1.85;;;;;;;;;;4893640;29;20040;-89
2022/09/15 08:13:06;;;;;;;10.55;1.80;;;;;;;;;;4892853;29;20032;-89
2022/09/15 08:15:35;;;;;;;7.05;1.50;;;;;;;;;;4896255;29;20039;-89
2022/09/15 08:18:01;;;;;;;7.22;1.60;;;;;;;;;;4913094;29;20024;-89
2022/09/15 08:20:27;;;;;;;4.20;1.10;;;;;;;;;;4907924;29;20430;-89
2022/09/15 08:22:53;;;;;;;10.00;1.55;;;;;;;;;;4895367;29;20084;-88
2022/09/15 08:25:19;;;;;;;5.13;1.33;;;;;;;;;;4894394;29;20032;-89
2022/09/15 08:27:45;;;;;;;10.40;1.83;;;;;;;;;;4908041;29;20182;-89
2022/09/15 08:30:11;;;;;;;8.80;1.95;;;;;;;;;;4914610;29;20028;-89
2022/09/15 08:32:37;;;;;;;8.40;1.52;;;;;;;;;;4893396;29;20032;-89
2022/09/15 08:35:04;;;;;;;10.65;1.90;;;;;;;;;;4895218;29;20038;-89
2022/09/15 08:37:30;;;;;;;7.65;1.75;;;;;;;;;;4883720;29;20035;-90
2022/09/15 08:39:56;;;;;;;6.20;1.35;;;;;;;;;;4894277;29;20416;-89
2022/09/15 08:42:25;;;;;;;10.90;1.65;;;;;;;;;;4896326;29;20111;-89
2022/09/15 08:44:55;;;;;;;5.45;1.35;;;;;;;;;;4896992;29;20032;-89
2022/09/15 08:47:24;;;;;;;10.70;1.50;;;;;;;;;;4889332;29;20060;-89
2022/09/15 08:50:27;;;;;;;7.75;1.48;;;;;;;;;;4891322;29;20029;-89
2022/09/15 08:52:56;;;;;;;6.25;1.60;;;;;;;;;;4851714;29;20044;-89
2022/09/15 08:55:25;;;;;;;3.30;1.45;;;;;;;;;;4880164;29;20040;-89
2022/09/15 08:57:55;;;;;;;5.03;1.25;;;;;;;;;;4927529;28;20059;-89
2022/09/15 09:00:21;;;;;;;5.38;1.30;;;;;;;;;;4911783;29;20043;-89
2022/09/15 09:02:56;;;;;;;5.68;0.88;;;;;;;;;;4897696;29;20042;-89
2022/09/15 09:05:23;;;;;;;;;;;;;;;;;;4909910;29;20127;-90
2022/09/15 09:08:08;;;;;;;18.17;2.08;;;;;;;;;;4914216;29;19921;-90
2022/09/15 09:10:45;;;;;;;8.10;1.40;;;;;;;;;;4914975;29;20023;-90
2022/09/15 09:13:10;;;;;;;4.72;0.98;;;;;;;;;;4912721;29;20027;-90
2022/09/15 09:15:40;;;;;;;6.22;1.38;;;;;;;;;;4930265;29;20034;-90
2022/09/15 09:18:23;;;;;;;9.60;1.75;;;;;;;;;;4929511;29;20047;-90
2022/09/15 09:20:49;;;;;;;12.32;1.80;;;;;;;;;;4926182;29;20083;-90
2022/09/15 09:23:17;;;;;;;12.32;2.00;;;;;;;;;;4914864;29;20083;-90
2022/09/15 09:25:43;;;;;;;7.38;1.27;;;;;;;;;;4909675;29;20071;-90
2022/09/15 09:28:28;;;;;;;13.85;2.13;;;;;;;;;;4894445;29;20063;-87
2022/09/15 09:30:56;;;;;;;14.07;2.25;;;;;;;;;;4909533;29;20384;-89
2022/09/15 09:33:22;;;;;;;11.43;1.45;;;;;;;;;;4929230;29;20031;-91
2022/09/15 09:35:52;;;;;;;6.93;1.50;;;;;;;;;;4927809;29;20585;-90
2022/09/15 09:38:20;;;;;;;10.57;1.63;;;;;;;;;;4914186;29;20051;-91
2022/09/15 09:40:46;;;;;;;8.65;1.48;;;;;;;;;;4912519;29;20087;-90
2022/09/15 09:43:12;;;;;;;11.13;1.75;;;;;;;;;;4911952;29;20575;-90
2022/09/15 09:45:38;;;;;;;10.23;1.65;;;;;;;;;;4927819;29;20035;-90
2022/09/15 09:48:34;;;;;;;10.63;1.50;;;;;;;;;;4911143;29;20047;-91
2022/09/15 09:51:00;;;;;;;7.32;1.77;;;;;;;;;;4901622;29;20045;-90
2022/09/15 09:53:29;;;;;;;15.60;1.70;;;;;;;;;;4894914;29;20246;-90
2022/09/15 09:56:14;;;;;;;5.80;1.45;;;;;;;;;;4914212;28;20020;-90
2022/09/15 09:58:41;;;;;;;8.57;1.23;;;;;;;;;;4908879;29;20067;-90
2022/09/15 10:01:14;;;;;;;10.43;1.40;;;;;;;;;;4912830;29;20467;-90
2022/09/15 10:03:44;;;;;;;6.47;1.15;;;;;;;;;;4924805;29;20078;-90
2022/09/15 10:06:15;;;;;;;8.57;1.48;;;;;;;;;;4898666;29;20059;-90
2022/09/15 10:08:53;;;;;;;7.25;1.95;;;;;;;;;;4929023;29;20480;-90
2022/09/15 10:11:21;;;;;;;5.05;1.33;;;;;;;;;;4925256;29;20028;-90
2022/09/15 10:13:51;;;;;;;6.95;1.52;;;;;;;;;;4928424;29;20030;-90
2022/09/15 10:16:18;;;;;;;4.93;1.38;;;;;;;;;;4928495;29;20039;-90
2022/09/15 10:18:45;;;;;;;5.45;1.85;;;;;;;;;;4909927;29;20035;-90
2022/09/15 10:21:13;;;;;;;6.57;1.40;;;;;;;;;;4907700;29;20242;-90
2022/09/15 10:23:39;;;;;;;8.27;1.80;;;;;;;;;;4911359;29;20032;-90
2022/09/15 10:26:17;;;;;;;6.07;1.27;;;;;;;;;;4910665;29;20504;-90
2022/09/15 10:28:44;;;;;;;8.20;1.73;;;;;;;;;;4907207;29;20035;-90
2022/09/15 10:31:14;;;;;;;6.45;1.42;;;;;;;;;;4928067;29;20036;-89
2022/09/15 10:33:42;;;;;;;10.57;1.70;;;;;;;;;;4914278;29;20267;-90
2022/09/15 10:36:16;;;;;;;11.15;1.50;;;;;;;;;;4895081;29;20044;-91
2022/09/15 10:38:47;;;;;;;6.88;1.20;;;;;;;;;;4910383;29;20043;-90
2022/09/15 10:41:27;;;;;;;5.78;1.45;;;;;;;;;;4911701;29;20050;-91
2022/09/15 10:44:00;;;;;;;13.80;1.63;;;;;;;;;;4923085;29;20099;-90
2022/09/15 10:46:27;;;;;;;9.13;1.55;;;;;;;;;;4906114;29;20033;-90
2022/09/15 10:49:00;;;;;;;8.43;1.42;;;;;;;;;;4911951;29;20688;-90
2022/09/15 10:51:55;;;;;;;9.23;1.38;;;;;;;;;;4927866;29;20126;-90
2022/09/15 10:54:38;;;;;;;8.60;1.42;;;;;;;;;;4894758;29;20050;-90
2022/09/15 10:57:15;;;;;;;6.65;1.92;;;;;;;;;;4921515;28;20074;-90
2022/09/15 10:59:47;;;;;;;9.27;1.48;;;;;;;;;;4946115;28;20039;-90
2022/09/15 11:02:25;;;;;;;5.85;1.00;;;;;;;;;;4928918;28;20050;-90
2022/09/15 11:04:54;;;;;;;1.67;1.00;;;;;;;;;;4947569;28;20039;-90
2022/09/15 11:07:27;;;;;;;4.10;1.10;;;;;;;;;;4931970;29;20448;-90
2022/09/15 11:10:11;;;;;;;17.27;1.83;;;;;;;;;;4925281;29;20031;-90
2022/09/15 11:13:07;;;;;;;7.10;1.30;;;;;;;;;;4944824;28;20042;-90
2022/09/15 11:15:37;;;;;;;8.82;1.20;;;;;;;;;;4880219;28;20537;-89
2022/09/15 11:18:06;;;;;;;10.95;1.50;;;;;;;;;;4932463;29;20510;-89
2022/09/15 11:20:51;;;;;;;6.43;1.20;;;;;;;;;;4932677;29;20078;-89
2022/09/15 11:23:37;;;;;;;6.95;1.63;;;;;;;;;;4933844;29;20043;-90
2022/09/15 11:26:29;;;;;;;9.98;1.50;;;;;;;;;;4931827;28;20023;-90
2022/09/15 11:29:02;;;;;;;3.90;1.33;;;;;;;;;;4928613;29;20154;-90
2022/09/15 11:31:34;;;;;;;6.80;2.03;;;;;;;;;;4931753;29;20094;-90
2022/09/15 11:34:14;;;;;;;10.68;1.60;;;;;;;;;;4932142;29;20122;-90
2022/09/15 11:36:49;;;;;;;4.75;1.60;;;;;;;;;;4950773;28;20038;-91
2022/09/15 11:39:18;;;;;;;3.42;1.33;;;;;;;;;;4930448;29;20042;-89
2022/09/15 11:42:17;;;;;;;2.75;1.15;;;;;;;;;;4934410;29;20491;-90
2022/09/15 11:44:44;;;;;;;8.00;1.30;;;;;;;;;;4892145;28;20050;-90
2022/09/15 11:47:28;;;;;;;4.53;1.10;;;;;;;;;;4930660;29;20117;-90
2022/09/15 11:49:57;;;;;;;9.15;1.63;;;;;;;;;;4944963;28;20534;-89
2022/09/15 11:52:35;;;;;;;10.13;1.17;;;;;;;;;;4933347;29;20124;-90
2022/09/15 11:55:20;;;;;;;7.28;1.60;;;;;;;;;;4935080;29;20643;-89
2022/09/15 11:57:57;;;;;;;5.68;1.70;;;;;;;;;;4950128;28;20133;-89
2022/09/15 12:00:24;;;;;;;5.10;1.55;;;;;;;;;;4934963;28;20035;-89
2022/09/15 12:03:09;;;;;;;6.13;1.60;;;;;;;;;;4933860;28;20078;-90
2022/09/15 12:05:50;;;;;;;3.67;0.95;;;;;;;;;;4942379;28;20095;-90
2022/09/15 12:08:16;;;;;;;2.90;1.05;;;;;;;;;;4932276;28;20042;-90
2022/09/15 12:10:48;;;;;;;2.63;0.95;;;;;;;;;;4931601;29;20027;-90
2022/09/15 12:13:18;;;;;;;7.18;1.00;;;;;;;;;;4929752;28;20027;-90
2022/09/15 12:15:45;;;;;;;5.15;1.40;;;;;;;;;;4936222;29;20046;-89
2022/09/15 12:18:18;;;;;;;4.63;1.02;;;;;;;;;;4931608;28;20031;-90
2022/09/15 12:20:50;;;;;;;4.35;0.82;;;;;;;;;;4949298;28;20055;-90
2022/09/15 12:23:39;;;;;;;3.15;1.10;;;;;;;;;;4932607;28;20039;-90
2022/09/15 12:26:13;;;;;;;5.05;1.20;;;;;;;;;;4938319;28;20049;-90
2022/09/15 12:29:01;;;;;;;1.73;1.05;;;;;;;;;;4946657;28;20075;-89
2022/09/15 12:31:30;;;;;;;4.18;0.98;;;;;;;;;;4934902;29;20043;-90
2022/09/15 12:33:57;;;;;;;4.85;1.25;;;;;;;;;;4947862;28;20030;-89
2022/09/15 12:36:38;;;;;;;6.60;1.17;;;;;;;;;;4935445;29;20467;-90
2022/09/15 12:39:16;;;;;;;6.57;1.02;;;;;;;;;;4947760;28;20034;-90
2022/09/15 12:41:47;;;;;;;4.18;1.33;;;;;;;;;;4936041;28;20090;-90
2022/09/15 12:44:31;;;;;;;6.90;1.42;;;;;;;;;;4948544;28;20059;-90
2022/09/15 12:46:58;;;;;;;11.73;1.67;;;;;;;;;;4944167;28;20035;-90
2022/09/15 12:49:29;;;;;;;3.75;1.33;;;;;;;;;;4919796;29;20031;-88
2022/09/15 12:51:56;;;;;;;5.65;1.23;;;;;;;;;;4931641;28;20114;-90
2022/09/15 12:54:23;;;;;;;7.53;1.45;;;;;;;;;;4918425;28;20031;-90
2022/09/15 12:56:51;;;;;;;4.03;1.00;;;;;;;;;;4930333;28;20039;-90
2022/09/15 12:59:24;;;;;;;4.25;1.40;;;;;;;;;;4932680;29;20058;-89
2022/09/15 13:01:50;;;;;;;10.73;1.50;;;;;;;;;;4949260;28;20035;-89
2022/09/15 13:04:35;;;;;;;6.40;1.40;;;;;;;;;;4932971;29;20384;-90
2022/09/15 13:07:19;;;;;;;8.18;1.55;;;;;;;;;;4924425;28;20035;-91
2022/09/15 13:09:56;;;;;;;4.88;1.25;;;;;;;;;;4931386;28;20958;-89
2022/09/15 13:12:24;;;;;;;7.03;1.08;;;;;;;;;;4929174;28;20031;-90
2022/09/15 13:14:51;;;;;;;11.95;1.45;;;;;;;;;;4928009;28;20019;-89
2022/09/15 13:17:19;;;;;;;3.63;1.20;;;;;;;;;;4927403;28;20039;-90
2022/09/15 13:19:53;;;;;;;12.77;2.55;;;;;;;;;;4928567;28;20043;-89
2022/09/15 13:22:25;;;;;;;5.43;1.65;;;;;;;;;;4945818;28;20410;-89
2022/09/15 13:25:05;;;;;;;2.60;1.25;;;;;;;;;;4947460;28;20445;-89
2022/09/15 13:27:36;;;;;;;4.15;1.13;;;;;;;;;;4931871;29;20047;-89
2022/09/15 13:30:22;;;;;;;9.73;0.93;;;;;;;;;;4951754;28;20602;-89
2022/09/15 13:32:48;;;;;;;;;;;;;;;;;;4910928;29;20124;-89
2022/09/15 13:35:26;;;;;;;6.00;1.17;;;;;;;;;;4927546;29;19952;-89
2022/09/15 13:38:11;;;;;;;7.38;1.35;;;;;;;;;;4929598;28;20035;-90
2022/09/15 13:40:37;;;;;;;7.88;1.70;;;;;;;;;;4930723;29;20043;-89
2022/09/15 13:43:22;;;;;;;5.82;1.88;;;;;;;;;;4932511;29;20031;-89
2022/09/15 13:46:01;;;;;;;7.10;1.00;;;;;;;;;;4922175;28;20135;-89
2022/09/15 13:48:49;;;;;;;6.20;1.13;;;;;;;;;;4930253;29;20082;-89
2022/09/15 13:51:21;;;;;;;2.83;0.90;;;;;;;;;;4932632;28;20178;-89
2022/09/15 13:53:59;;;;;;;5.38;1.48;;;;;;;;;;4942868;28;20122;-89
2022/09/15 13:56:29;;;;;;;3.03;1.17;;;;;;;;;;4946092;28;20551;-89
2022/09/15 13:59:00;;;;;;;2.38;0.70;;;;;;;;;;4908291;29;20559;-89
2022/09/15 14:01:27;;;;;;;4.15;1.00;;;;;;;;;;4889476;29;20120;-89
2022/09/15 14:03:59;;;;;;;6.43;1.15;;;;;;;;;;4895168;29;20481;-89
2022/09/15 14:06:29;;;;;;;4.90;0.93;;;;;;;;;;4902867;29;20044;-89
2022/09/15 14:09:00;;;;;;;3.40;1.15;;;;;;;;;;4908986;29;20028;-88
2022/09/15 14:11:34;;;;;;;3.25;0.85;;;;;;;;;;4892226;29;20024;-88
2022/09/15 14:14:01;;;;;;;5.68;0.90;;;;;;;;;;4890612;29;20024;-89
2022/09/15 14:16:35;;;;;;;8.75;1.27;;;;;;;;;;4880036;29;20040;-89
2022/09/15 14:19:03;;;;;;;5.00;2.15;;;;;;;;;;4906271;29;20629;-89
2022/09/15 14:21:30;;;;;;;6.07;1.45;;;;;;;;;;4891685;29;20040;-90
2022/09/15 14:23:58;;;;;;;7.72;2.03;;;;;;;;;;4905736;29;20042;-89
2022/09/15 14:26:28;;;;;;;7.90;1.00;;;;;;;;;;4897737;29;20119;-89
2022/09/15 14:28:58;;;;;;;4.05;1.20;;;;;;;;;;4887957;29;20056;-89
2022/09/15 14:31:35;;;;;;;9.65;1.50;;;;;;;;;;4896652;29;20119;-89
2022/09/15 14:34:02;;;;;;;2.42;0.95;;;;;;;;;;4887903;29;20047;-89
2022/09/15 14:36:30;;;;;;;2.63;1.05;;;;;;;;;;4891637;29;20036;-89
2022/09/15 14:39:02;;;;;;;6.05;1.02;;;;;;;;;;4889170;29;20047;-89
2022/09/15 14:41:31;;;;;;;10.10;1.67;;;;;;;;;;4884940;29;20036;-89
2022/09/15 14:43:57;;;;;;;11.65;1.30;;;;;;;;;;4900304;29;20043;-88
2022/09/15 14:46:23;;;;;;;9.25;1.85;;;;;;;;;;4888021;29;20040;-89
2022/09/15 14:48:49;;;;;;;3.95;0.93;;;;;;;;;;4907087;29;20485;-89
2022/09/15 14:51:15;;;;;;;2.92;1.10;;;;;;;;;;4895434;29;20445;-89
2022/09/15 14:53:43;;;;;;;4.20;1.00;;;;;;;;;;4903510;29;20028;-89
2022/09/15 14:56:18;;;;;;;7.10;1.45;;;;;;;;;;4894452;29;20492;-89
2022/09/15 14:58:44;;;;;;;3.03;0.90;;;;;;;;;;4928396;28;20066;-89